createdAt,value
2018-11-10T00:01:29.731Z,95.40
2018-11-10T00:03:57.964Z,95.40
2018-11-10T00:06:25.764Z,95.40
2018-11-10T00:08:53.448Z,95.60
2018-11-10T00:11:21.249Z,95.40
2018-11-10T00:13:48.943Z,95.50
2018-11-10T00:16:16.798Z,95.80
2018-11-10T00:18:44.445Z,96.00
2018-11-10T00:21:12.181Z,96.10
2018-11-10T00:23:39.906Z,95.90
2018-11-10T00:26:07.718Z,95.80
2018-11-10T00:28:35.526Z,95.80
2018-11-10T00:31:03.269Z,95.40
2018-11-10T00:33:31.067Z,95.20
2018-11-10T00:35:59.532Z,94.70
2018-11-10T00:38:27.316Z,94.50
2018-11-10T00:40:54.990Z,94.00
2018-11-10T00:43:23.779Z,93.70
2018-11-10T00:45:51.528Z,93.90
2018-11-10T00:48:19.421Z,93.50
2018-11-10T00:50:47.196Z,93.60
2018-11-10T00:53:14.904Z,93.60
2018-11-10T00:55:42.917Z,93.60
2018-11-10T00:58:10.611Z,95.10
2018-11-10T01:00:38.532Z,96.50
2018-11-10T01:03:06.479Z,97.20
2018-11-10T01:05:34.167Z,97.40
2018-11-10T01:08:01.933Z,97.40
2018-11-10T01:10:29.895Z,97.40
2018-11-10T01:12:57.522Z,97.00
2018-11-10T01:15:25.199Z,96.30
2018-11-10T01:17:52.891Z,95.80
2018-11-10T01:20:20.630Z,95.20
2018-11-10T01:22:48.433Z,96.00
2018-11-10T01:25:16.107Z,96.40
2018-11-10T01:27:43.811Z,96.70
2018-11-10T01:30:13.619Z,96.70
2018-11-10T01:32:42.029Z,96.70
2018-11-10T01:35:10.544Z,96.00
2018-11-10T01:37:38.485Z,95.60
2018-11-10T01:40:07.879Z,95.40
2018-11-10T01:42:37.756Z,95.20
2018-11-10T01:45:08.327Z,95.00
2018-11-10T01:47:36.135Z,94.60
2018-11-10T01:50:04.320Z,94.90
2018-11-10T01:52:32.032Z,96.10
2018-11-10T01:54:59.751Z,96.30
2018-11-10T01:57:27.512Z,96.10
2018-11-10T01:59:55.982Z,95.90
2018-11-10T02:02:24.939Z,96.30
2018-11-10T02:04:52.669Z,96.00
2018-11-10T02:07:20.371Z,95.30
2018-11-10T02:09:48.091Z,94.70
2018-11-10T02:12:15.751Z,94.40
2018-11-10T02:14:43.470Z,94.60
2018-11-10T02:17:11.123Z,94.60
2018-11-10T02:19:38.747Z,94.30
2018-11-10T02:22:06.389Z,94.10
2018-11-10T02:24:34.128Z,94.00
2018-11-10T02:27:01.898Z,94.10
2018-11-10T02:29:29.724Z,95.00
2018-11-10T02:31:57.472Z,95.70
2018-11-10T02:34:25.246Z,95.90
2018-11-10T02:36:52.969Z,96.90
2018-11-10T02:39:20.699Z,96.90
2018-11-10T02:41:48.431Z,96.90
2018-11-10T02:44:16.947Z,97.40
2018-11-10T02:46:45.359Z,97.40
2018-11-10T02:49:13.052Z,97.40
2018-11-10T02:51:40.784Z,97.40
2018-11-10T02:54:08.497Z,97.40
2018-11-10T02:56:36.218Z,97.40
2018-11-10T02:59:04.969Z,97.40
2018-11-10T03:01:33.352Z,97.40
2018-11-10T03:04:01.089Z,96.80
2018-11-10T03:06:31.723Z,96.50
2018-11-10T03:08:59.822Z,96.30
2018-11-10T03:11:27.529Z,96.50
2018-11-10T03:13:55.776Z,97.00
2018-11-10T03:16:23.525Z,96.70
2018-11-10T03:18:51.156Z,97.40
2018-11-10T03:21:18.823Z,97.40
2018-11-10T03:23:46.483Z,97.40
2018-11-10T03:26:14.149Z,97.40
2018-11-10T03:28:41.924Z,97.00
2018-11-10T03:31:09.564Z,96.50
2018-11-10T03:33:37.258Z,96.50
2018-11-10T03:36:04.987Z,96.20
2018-11-10T03:38:32.703Z,95.50
2018-11-10T03:41:00.431Z,94.50
2018-11-10T03:43:28.179Z,93.80
2018-11-10T03:45:55.954Z,92.80
2018-11-10T03:48:23.675Z,92.70
2018-11-10T03:50:51.308Z,92.40
2018-11-10T03:53:18.969Z,92.40
2018-11-10T03:55:46.704Z,92.20
2018-11-10T03:58:14.460Z,92.40
2018-11-10T04:00:42.195Z,92.80
2018-11-10T04:03:09.968Z,93.00
2018-11-10T04:05:37.720Z,93.10
2018-11-10T04:08:06.125Z,93.30
2018-11-10T04:10:33.898Z,93.40
2018-11-10T04:13:01.605Z,93.70
2018-11-10T04:15:29.419Z,93.80
2018-11-10T04:17:57.229Z,93.90
2018-11-10T04:20:24.960Z,93.70
2018-11-10T04:22:52.696Z,93.70
2018-11-10T04:25:20.460Z,93.40
2018-11-10T04:27:48.160Z,93.10
2018-11-10T04:30:15.853Z,93.20
2018-11-10T04:32:43.518Z,93.20
2018-11-10T04:35:11.218Z,93.20
2018-11-10T04:37:38.918Z,93.40
2018-11-10T04:40:07.491Z,93.60
2018-11-10T04:42:35.231Z,93.30
2018-11-10T04:45:03.045Z,93.10
2018-11-10T04:47:30.703Z,93.30
2018-11-10T04:49:59.698Z,93.20
2018-11-10T04:52:27.311Z,93.40
2018-11-10T04:54:54.992Z,93.60
2018-11-10T04:57:22.676Z,93.70
2018-11-10T04:59:50.480Z,93.90
2018-11-10T05:02:18.184Z,94.10
2018-11-10T05:04:45.854Z,94.50
2018-11-10T05:07:13.514Z,94.50
2018-11-10T05:09:41.164Z,94.00
2018-11-10T05:12:09.850Z,94.00
2018-11-10T05:14:37.563Z,93.90
2018-11-10T05:17:05.476Z,93.60
2018-11-10T05:19:33.182Z,93.30
2018-11-10T05:22:00.957Z,93.10
2018-11-10T05:24:28.719Z,92.80
2018-11-10T05:26:56.422Z,93.10
2018-11-10T05:29:24.078Z,93.40
2018-11-10T05:31:51.771Z,93.70
2018-11-10T05:34:19.532Z,94.00
2018-11-10T05:36:47.919Z,94.40
2018-11-10T05:39:15.588Z,94.50
2018-11-10T05:41:43.324Z,94.50
2018-11-10T05:44:10.989Z,94.00
2018-11-10T05:46:38.826Z,94.10
2018-11-10T05:49:06.660Z,93.90
2018-11-10T05:51:35.350Z,93.90
2018-11-10T05:54:03.046Z,93.80
2018-11-10T05:56:30.777Z,93.60
2018-11-10T05:58:58.612Z,93.50
2018-11-10T06:01:26.415Z,93.40
2018-11-10T06:03:54.284Z,93.40
2018-11-10T06:06:22.246Z,93.20
2018-11-10T06:08:49.947Z,92.80
2018-11-10T06:11:17.763Z,93.20
2018-11-10T06:13:45.827Z,93.10
2018-11-10T06:16:13.851Z,93.20
2018-11-10T06:18:41.807Z,93.00
2018-11-10T06:21:09.491Z,92.70
2018-11-10T06:23:37.289Z,92.50
2018-11-10T06:26:05.566Z,92.40
2018-11-10T06:28:33.252Z,92.00
2018-11-10T06:31:01.196Z,91.90
2018-11-10T06:33:28.893Z,91.70
2018-11-10T06:35:56.888Z,91.60
2018-11-10T06:38:24.633Z,91.50
2018-11-10T06:40:52.613Z,91.90
2018-11-10T06:43:20.450Z,92.20
2018-11-10T06:45:48.300Z,91.70
2018-11-10T06:48:16.100Z,91.70
2018-11-10T06:50:44.056Z,92.10
2018-11-10T06:53:11.841Z,91.80
2018-11-10T06:55:39.721Z,92.10
2018-11-10T06:58:07.492Z,91.90
2018-11-10T07:00:35.462Z,91.70
2018-11-10T07:03:03.239Z,91.70
2018-11-10T07:05:31.021Z,92.40
2018-11-10T07:07:58.789Z,92.30
2018-11-10T07:10:26.689Z,92.10
2018-11-10T07:12:54.361Z,92.10
2018-11-10T07:15:22.273Z,92.10
2018-11-10T07:17:49.976Z,91.90
2018-11-10T07:20:17.615Z,91.70
2018-11-10T07:22:45.328Z,91.50
2018-11-10T07:25:13.005Z,91.40
2018-11-10T07:27:40.706Z,91.00
2018-11-10T07:30:10.428Z,91.00
2018-11-10T07:32:38.190Z,90.70
2018-11-10T07:35:06.585Z,90.30
2018-11-10T07:37:34.475Z,90.40
2018-11-10T07:40:02.200Z,90.30
2018-11-10T07:42:29.896Z,90.30
2018-11-10T07:44:57.620Z,90.10
2018-11-10T07:47:25.412Z,89.90
2018-11-10T07:49:53.126Z,89.20
2018-11-10T07:52:20.834Z,87.30
2018-11-10T07:54:49.402Z,87.30
2018-11-10T07:57:17.111Z,85.80
2018-11-10T07:59:44.812Z,85.60
2018-11-10T08:02:12.488Z,86.80
2018-11-10T08:04:40.241Z,86.60
2018-11-10T08:07:07.908Z,85.50
2018-11-10T08:09:40.236Z,83.20
2018-11-10T08:12:07.910Z,84.10
2018-11-10T08:14:39.912Z,84.90
2018-11-10T08:17:07.611Z,84.90
2018-11-10T08:19:35.339Z,84.30
2018-11-10T08:22:03.138Z,83.40
2018-11-10T08:24:30.809Z,84.00
2018-11-10T08:26:58.501Z,84.00
2018-11-10T08:29:26.185Z,83.20
2018-11-10T08:31:53.901Z,83.40
2018-11-10T08:34:21.649Z,82.80
2018-11-10T08:36:49.377Z,82.50
2018-11-10T08:39:17.129Z,82.30
2018-11-10T08:41:44.827Z,82.50
2018-11-10T08:44:12.553Z,82.30
2018-11-10T08:46:40.239Z,82.10
2018-11-10T08:49:07.896Z,82.10
2018-11-10T08:51:35.647Z,82.50
2018-11-10T08:54:03.392Z,82.30
2018-11-10T08:56:31.149Z,81.40
2018-11-10T08:58:59.429Z,81.00
2018-11-10T09:01:27.146Z,81.20
2018-11-10T09:03:54.916Z,81.00
2018-11-10T09:06:22.726Z,80.80
2018-11-10T09:08:50.518Z,81.40
2018-11-10T09:11:18.244Z,80.20
2018-11-10T09:13:45.998Z,80.00
2018-11-10T09:16:14.880Z,81.00
2018-11-10T09:18:42.646Z,80.20
2018-11-10T09:21:10.456Z,80.40
2018-11-10T09:23:38.183Z,80.00
2018-11-10T09:26:05.912Z,80.00
2018-11-10T09:28:33.623Z,79.50
2018-11-10T09:31:01.403Z,78.90
2018-11-10T09:33:28.994Z,77.40
2018-11-10T09:35:56.655Z,74.60
2018-11-10T09:38:24.375Z,75.80
2018-11-10T09:40:52.048Z,75.90
2018-11-10T09:43:19.749Z,75.90
2018-11-10T09:45:47.467Z,75.20
2018-11-10T09:48:15.177Z,74.10
2018-11-10T09:50:42.928Z,72.40
2018-11-10T09:53:10.561Z,70.70
2018-11-10T09:55:38.250Z,67.60
2018-11-10T09:58:06.091Z,68.30
2018-11-10T10:00:33.848Z,69.40
2018-11-10T10:03:01.593Z,67.70
2018-11-10T10:05:29.304Z,64.80
2018-11-10T10:07:56.960Z,59.90
2018-11-10T10:10:24.647Z,58.70
2018-11-10T10:12:52.402Z,56.40
2018-11-10T10:15:20.065Z,54.90
2018-11-10T10:17:47.984Z,52.20
2018-11-10T10:20:16.979Z,50.30
2018-11-10T10:22:45.554Z,47.60
2018-11-10T10:25:14.851Z,42.90
2018-11-10T10:27:43.594Z,40.80
2018-11-10T10:30:16.609Z,36.90
2018-11-10T10:32:45.396Z,32.80
2018-11-10T10:35:14.246Z,29.60
2018-11-10T10:37:42.288Z,26.80
2018-11-10T10:40:11.603Z,23.20
2018-11-10T10:42:39.350Z,23.40
2018-11-10T10:45:09.259Z,23.50
2018-11-10T10:47:37.059Z,22.70
2018-11-10T10:50:05.896Z,22.50
2018-11-10T10:52:34.506Z,21.40
2018-11-10T10:55:10.591Z,21.00
2018-11-10T10:57:38.314Z,21.10
2018-11-10T11:00:10.260Z,22.00
2018-11-10T11:02:43.722Z,22.60
2018-11-10T11:05:14.243Z,21.50
2018-11-10T11:07:42.968Z,22.20
2018-11-10T11:10:10.676Z,22.20
2018-11-10T11:12:38.352Z,23.40
2018-11-10T11:15:06.439Z,24.10
2018-11-10T11:17:34.219Z,23.80
2018-11-10T11:20:01.896Z,25.70
2018-11-10T11:22:30.251Z,26.90
2018-11-10T11:24:57.911Z,27.40
2018-11-10T11:27:25.661Z,26.70
2018-11-10T11:29:53.510Z,26.20
2018-11-10T11:32:21.202Z,25.00
2018-11-10T11:34:48.878Z,25.60
2018-11-10T11:37:16.624Z,26.20
2018-11-10T11:39:44.343Z,26.10
2018-11-10T11:42:12.041Z,24.80
2018-11-10T11:44:39.822Z,24.70
2018-11-10T11:47:07.529Z,24.40
2018-11-10T11:49:35.248Z,24.00
2018-11-10T11:52:02.897Z,24.10
2018-11-10T11:54:30.617Z,24.20
2018-11-10T11:56:58.404Z,22.50
2018-11-10T11:59:26.151Z,22.10
2018-11-10T12:01:53.826Z,21.60
2018-11-10T12:04:21.558Z,22.20
2018-11-10T12:06:49.324Z,22.50
2018-11-10T12:09:17.090Z,21.70
2018-11-10T12:11:44.791Z,22.40
2018-11-10T12:14:12.464Z,24.20
2018-11-10T12:16:40.269Z,25.20
2018-11-10T12:19:07.861Z,25.80
2018-11-10T12:21:35.567Z,27.00
2018-11-10T12:24:03.931Z,27.70
2018-11-10T12:26:31.717Z,28.80
2018-11-10T12:28:59.452Z,29.70
2018-11-10T12:31:27.174Z,31.00
2018-11-10T12:33:54.898Z,31.60
2018-11-10T12:36:22.596Z,32.20
2018-11-10T12:38:50.396Z,32.80
2018-11-10T12:41:18.055Z,33.90
2018-11-10T12:43:45.784Z,34.80
2018-11-10T12:46:13.485Z,35.40
2018-11-10T12:48:41.196Z,36.00
2018-11-10T12:51:09.553Z,35.40
2018-11-10T12:53:37.191Z,34.70
2018-11-10T12:56:05.365Z,34.70
2018-11-10T12:58:33.701Z,35.00
2018-11-10T13:01:01.411Z,35.30
2018-11-10T13:06:39.608Z,36.50
2018-11-10T13:09:08.293Z,37.60
2018-11-10T13:11:36.427Z,38.80
2018-11-10T13:14:04.184Z,39.20
2018-11-10T13:16:31.942Z,40.00
2018-11-10T13:18:59.667Z,40.90
2018-11-10T13:21:27.512Z,41.20
2018-11-10T13:23:55.257Z,41.20
2018-11-10T13:26:23.082Z,41.70
2018-11-10T13:28:50.803Z,41.20
2018-11-10T13:31:18.691Z,41.70
2018-11-10T13:33:46.382Z,42.00
2018-11-10T13:36:14.127Z,42.60
2018-11-10T13:38:41.802Z,42.60
2018-11-10T13:41:09.564Z,42.40
2018-11-10T13:43:38.325Z,42.90
2018-11-10T13:46:06.036Z,43.50
2018-11-10T13:48:34.027Z,43.20
2018-11-10T13:51:02.315Z,42.90
2018-11-10T13:53:29.602Z,43.80
2018-11-10T13:55:57.449Z,45.00
2018-11-10T13:58:25.085Z,44.40
2018-11-10T14:00:52.795Z,43.50
2018-11-10T14:03:20.578Z,43.80
2018-11-10T14:05:48.268Z,44.60
2018-11-10T14:08:16.073Z,44.00
2018-11-10T14:10:43.943Z,44.00
2018-11-10T14:13:11.672Z,44.10
2018-11-10T14:15:39.459Z,45.50
2018-11-10T14:18:07.143Z,46.10
2018-11-10T14:20:34.896Z,45.50
2018-11-10T14:23:02.670Z,43.20
2018-11-10T14:25:30.467Z,43.30
2018-11-10T14:27:58.232Z,46.10
2018-11-10T14:30:25.912Z,46.40
2018-11-10T14:32:53.700Z,46.70
2018-11-10T14:35:21.446Z,47.00
2018-11-10T14:37:49.177Z,47.30
2018-11-10T14:40:17.571Z,48.70
2018-11-10T14:42:45.711Z,49.70
2018-11-10T14:45:14.829Z,50.20
2018-11-10T14:47:43.116Z,50.50
2018-11-10T14:50:11.788Z,51.40
2018-11-10T14:52:39.955Z,51.70
2018-11-10T14:55:10.233Z,52.00
2018-11-10T14:57:39.301Z,52.30
2018-11-10T15:00:12.421Z,52.80
2018-11-10T15:02:40.348Z,52.90
2018-11-10T15:05:09.042Z,53.50
2018-11-10T15:07:36.785Z,54.30
2018-11-10T15:10:06.582Z,53.40
2018-11-10T15:12:34.300Z,53.70
2018-11-10T15:15:03.011Z,54.90
2018-11-10T15:17:31.150Z,55.10
2018-11-10T15:19:58.900Z,53.90
2018-11-10T15:22:26.596Z,56.30
2018-11-10T15:24:54.306Z,55.20
2018-11-10T15:27:22.016Z,56.40
2018-11-10T15:29:49.733Z,57.20
2018-11-10T15:32:17.420Z,56.10
2018-11-10T15:34:45.233Z,58.10
2018-11-10T15:37:13.045Z,58.30
2018-11-10T15:39:40.726Z,58.70
2018-11-10T15:42:08.548Z,59.50
2018-11-10T15:44:37.027Z,60.50
2018-11-10T15:47:05.041Z,61.00
2018-11-10T15:49:32.894Z,60.50
2018-11-10T15:52:00.753Z,60.50
2018-11-10T15:54:28.460Z,60.30
2018-11-10T15:56:56.211Z,61.00
2018-11-10T15:59:23.865Z,60.90
2018-11-10T16:01:51.632Z,62.90
2018-11-10T16:04:19.616Z,63.70
2018-11-10T16:06:47.411Z,65.30
2018-11-10T16:09:15.270Z,64.60
2018-11-10T16:11:43.046Z,64.60
2018-11-10T16:14:10.784Z,65.00
2018-11-10T16:16:38.621Z,66.30
2018-11-10T16:19:07.000Z,66.80
2018-11-10T16:21:34.733Z,67.70
2018-11-10T16:24:02.436Z,69.20
2018-11-10T16:26:30.216Z,69.60
2018-11-10T16:28:58.134Z,69.20
2018-11-10T16:31:26.029Z,69.10
2018-11-10T16:33:54.084Z,69.10
2018-11-10T16:36:21.990Z,69.40
2018-11-10T16:38:50.022Z,69.80
2018-11-10T16:41:17.872Z,69.80
2018-11-10T16:43:45.619Z,70.70
2018-11-10T16:46:13.624Z,71.30
2018-11-10T16:48:41.876Z,71.70
2018-11-10T16:51:09.649Z,72.40
2018-11-10T16:53:37.363Z,72.80
2018-11-10T16:56:05.190Z,73.30
2018-11-10T16:58:33.597Z,73.20
2018-11-10T17:01:01.324Z,73.00
2018-11-10T17:03:29.102Z,73.00
2018-11-10T17:05:56.853Z,73.00
2018-11-10T17:08:24.677Z,73.30
2018-11-10T17:10:53.472Z,73.30
2018-11-10T17:13:21.397Z,73.00
2018-11-10T17:15:49.240Z,73.00
2018-11-10T17:18:18.254Z,72.80
2018-11-10T17:20:45.973Z,73.30
2018-11-10T17:23:13.781Z,73.90
2018-11-10T17:25:41.576Z,74.50
2018-11-10T17:28:09.450Z,74.80
2018-11-10T17:30:37.099Z,74.80
2018-11-10T17:33:05.052Z,75.00
2018-11-10T17:35:32.965Z,74.60
2018-11-10T17:38:01.837Z,74.80
2018-11-10T17:40:29.459Z,74.60
2018-11-10T17:42:57.444Z,74.60
2018-11-10T17:45:25.191Z,74.60
2018-11-10T17:47:52.851Z,74.60
2018-11-10T17:50:20.639Z,75.00
2018-11-10T17:52:48.473Z,75.40
2018-11-10T17:55:16.990Z,75.40
2018-11-10T17:57:45.327Z,75.60
2018-11-10T18:00:13.438Z,75.60
2018-11-10T18:02:41.615Z,75.60
2018-11-10T18:05:11.492Z,75.60
2018-11-10T18:07:39.188Z,75.40
2018-11-10T18:10:10.040Z,75.20
2018-11-10T18:12:37.746Z,75.20
2018-11-10T18:15:07.115Z,74.60
2018-11-10T18:17:34.912Z,75.40
2018-11-10T18:20:03.163Z,75.60
2018-11-10T18:22:30.948Z,75.80
2018-11-10T18:24:58.840Z,76.50
2018-11-10T18:27:26.632Z,76.90
2018-11-10T18:29:54.687Z,77.40
2018-11-10T18:32:22.654Z,77.40
2018-11-10T18:34:50.402Z,78.40
2018-11-10T18:37:18.153Z,78.60
2018-11-10T18:39:46.778Z,78.70
2018-11-10T18:42:14.435Z,78.40
2018-11-10T18:44:42.546Z,77.80
2018-11-10T18:47:10.374Z,77.40
2018-11-10T18:49:38.483Z,76.90
2018-11-10T18:55:28.063Z,76.30
2018-11-10T18:57:56.047Z,75.60
2018-11-10T19:00:28.438Z,75.60
2018-11-10T19:02:56.325Z,75.40
2018-11-10T19:05:24.299Z,75.80
2018-11-10T19:07:53.601Z,75.90
2018-11-10T19:10:30.156Z,76.10
2018-11-10T19:12:58.125Z,76.30
2018-11-10T19:15:25.973Z,76.50
2018-11-10T19:17:53.947Z,76.50
2018-11-10T19:20:21.860Z,77.40
2018-11-10T19:22:50.314Z,77.80
2018-11-10T19:25:18.350Z,78.20
2018-11-10T19:27:46.290Z,78.00
2018-11-10T19:30:16.598Z,78.70
2018-11-10T19:32:46.089Z,79.50
2018-11-10T19:35:36.099Z,79.30
2018-11-10T19:38:27.098Z,78.70
2018-11-10T19:40:55.621Z,77.40
2018-11-10T19:43:23.428Z,77.10
2018-11-10T19:45:51.239Z,76.90
2018-11-10T19:48:19.001Z,77.30
2018-11-10T19:50:46.915Z,76.70
2018-11-10T19:53:14.700Z,76.90
2018-11-10T19:55:42.392Z,76.10
2018-11-10T19:58:10.207Z,76.70
2018-11-10T20:00:38.004Z,77.30
2018-11-10T20:03:05.909Z,78.20
2018-11-10T20:05:33.872Z,78.90
2018-11-10T20:08:03.528Z,79.30
2018-11-10T20:10:31.377Z,78.90
2018-11-10T20:12:59.257Z,78.70
2018-11-10T20:15:26.974Z,78.70
2018-11-10T20:17:55.026Z,78.60
2018-11-10T20:20:23.552Z,77.80
2018-11-10T20:22:51.337Z,76.70
2018-11-10T20:25:19.453Z,76.90
2018-11-10T20:27:47.912Z,77.40
2018-11-10T20:30:17.436Z,77.40
2018-11-10T20:32:45.303Z,77.30
2018-11-10T20:35:13.773Z,77.30
2018-11-10T20:37:42.259Z,77.40
2018-11-10T20:40:11.885Z,75.90
2018-11-10T20:42:39.935Z,75.90
2018-11-10T20:45:10.315Z,76.50
2018-11-10T20:47:38.816Z,77.80
2018-11-10T20:50:06.608Z,77.80
2018-11-10T20:52:35.370Z,76.30
2018-11-10T20:55:05.706Z,76.50
2018-11-10T20:57:33.998Z,76.90
2018-11-10T21:00:03.395Z,76.30
2018-11-10T21:02:32.393Z,76.30
2018-11-10T21:05:00.197Z,76.50
2018-11-10T21:07:28.028Z,76.10
2018-11-10T21:09:57.277Z,76.90
2018-11-10T21:12:25.330Z,77.10
2018-11-10T21:14:53.112Z,77.10
2018-11-10T21:17:20.885Z,77.10
2018-11-10T21:19:48.764Z,77.30
2018-11-10T21:22:16.570Z,77.80
2018-11-10T21:24:44.279Z,78.40
2018-11-10T21:27:12.625Z,78.70
2018-11-10T21:29:40.445Z,78.90
2018-11-10T21:32:08.669Z,79.10
2018-11-10T21:34:36.708Z,79.70
2018-11-10T21:37:04.970Z,80.20
2018-11-10T21:39:32.900Z,80.40
2018-11-10T21:42:00.804Z,80.40
2018-11-10T21:44:28.612Z,80.40
2018-11-10T21:46:56.637Z,80.20
2018-11-10T21:49:24.788Z,80.20
2018-11-10T21:51:52.705Z,80.60
2018-11-10T21:54:20.571Z,80.40
2018-11-10T21:56:48.260Z,80.40
2018-11-10T21:59:16.111Z,80.20
2018-11-10T22:01:44.090Z,80.60
2018-11-10T22:04:12.894Z,80.20
2018-11-10T22:06:40.599Z,79.70
2018-11-10T22:09:10.311Z,79.30
2018-11-10T22:11:38.384Z,80.00
2018-11-10T22:14:06.240Z,79.50
2018-11-10T22:16:34.037Z,79.30
2018-11-10T22:19:02.633Z,79.30
2018-11-10T22:21:30.485Z,79.50
2018-11-10T22:23:58.229Z,79.30
2018-11-10T22:26:27.326Z,80.00
2018-11-10T22:28:55.412Z,79.70
2018-11-10T22:31:23.293Z,80.00
2018-11-10T22:33:51.436Z,79.90
2018-11-10T22:36:19.527Z,79.70
2018-11-10T22:38:47.480Z,79.50
2018-11-10T22:41:15.262Z,79.30
2018-11-10T22:43:43.767Z,79.70
2018-11-10T22:46:11.442Z,80.00
2018-11-10T22:48:39.904Z,80.40
2018-11-10T22:51:09.208Z,80.60
2018-11-10T22:53:37.848Z,80.40
2018-11-10T22:56:05.615Z,80.40
2018-11-10T22:58:33.426Z,80.60
2018-11-10T23:01:06.192Z,80.60
2018-11-10T23:03:34.518Z,80.60
2018-11-10T23:06:02.153Z,80.40
2018-11-10T23:08:30.005Z,80.40
2018-11-10T23:10:57.945Z,80.80
2018-11-10T23:13:26.606Z,80.00
2018-11-10T23:15:57.356Z,80.00
2018-11-10T23:18:25.152Z,80.00
2018-11-10T23:20:53.772Z,80.40
2018-11-10T23:23:21.570Z,80.20
2018-11-10T23:25:49.260Z,79.30
2018-11-10T23:28:17.047Z,78.90
2018-11-10T23:30:44.790Z,79.50
2018-11-10T23:33:12.590Z,79.10
2018-11-10T23:35:40.895Z,79.50
2018-11-10T23:38:09.100Z,79.70
2018-11-10T23:40:37.820Z,80.20
2018-11-10T23:43:05.728Z,80.80
2018-11-10T23:45:33.604Z,81.40
2018-11-10T23:48:01.373Z,81.00
2018-11-10T23:50:29.099Z,80.80
2018-11-10T23:52:56.835Z,79.90
2018-11-10T23:55:24.596Z,80.40
2018-11-10T23:57:52.318Z,81.00
